sensor_id;sensor_type;location;lat;lon;timestamp;temperature;humidity
25482;DHT22;13395;50.752;4.268;2023-02-28T00:00:39;1.50;99.90
25482;DHT22;13395;50.752;4.268;2023-02-28T00:03:05;1.50;99.90
25482;DHT22;13395;50.752;4.268;2023-02-28T00:05:31;1.40;99.90
25482;DHT22;13395;50.752;4.268;2023-02-28T00:07:57;1.40;99.90
25482;DHT22;13395;50.752;4.268;2023-02-28T00:10:28;1.40;99.90
25482;DHT22;13395;50.752;4.268;2023-02-28T00:12:55;1.40;99.90
25482;DHT22;13395;50.752;4.268;2023-02-28T00:15:22;1.40;99.90
25482;DHT22;13395;50.752;4.268;2023-02-28T00:17:49;1.30;99.90
25482;DHT22;13395;50.752;4.268;2023-02-28T00:20:15;1.30;99.90
25482;DHT22;13395;50.752;4.268;2023-02-28T00:22:47;1.30;99.90
25482;DHT22;13395;50.752;4.268;2023-02-28T00:25:15;1.20;99.90
25482;DHT22;13395;50.752;4.268;2023-02-28T00:27:41;1.20;99.90
25482;DHT22;13395;50.752;4.268;2023-02-28T00:30:10;1.10;99.90
25482;DHT22;13395;50.752;4.268;2023-02-28T00:32:36;1.10;99.90
25482;DHT22;13395;50.752;4.268;2023-02-28T00:35:04;1.10;99.90
25482;DHT22;13395;50.752;4.268;2023-02-28T00:37:30;1.10;99.90
25482;DHT22;13395;50.752;4.268;2023-02-28T00:39:56;1.10;99.90
25482;DHT22;13395;50.752;4.268;2023-02-28T00:42:21;1.10;99.90
25482;DHT22;13395;50.752;4.268;2023-02-28T00:44:47;1.00;99.90
25482;DHT22;13395;50.752;4.268;2023-02-28T00:47:13;1.00;99.90
25482;DHT22;13395;50.752;4.268;2023-02-28T00:49:38;1.00;99.90
25482;DHT22;13395;50.752;4.268;2023-02-28T00:52:04;1.00;99.90
25482;DHT22;13395;50.752;4.268;2023-02-28T00:54:29;1.00;99.90
25482;DHT22;13395;50.752;4.268;2023-02-28T00:56:55;1.00;99.90
25482;DHT22;13395;50.752;4.268;2023-02-28T00:59:21;1.00;99.90
25482;DHT22;13395;50.752;4.268;2023-02-28T01:01:46;0.80;99.90
25482;DHT22;13395;50.752;4.268;2023-02-28T01:04:12;0.80;99.90
25482;DHT22;13395;50.752;4.268;2023-02-28T01:06:38;0.80;99.90
25482;DHT22;13395;50.752;4.268;2023-02-28T01:09:06;0.80;99.90
25482;DHT22;13395;50.752;4.268;2023-02-28T01:11:33;0.80;99.90
25482;DHT22;13395;50.752;4.268;2023-02-28T01:13:59;0.80;99.90
25482;DHT22;13395;50.752;4.268;2023-02-28T01:16:25;0.80;99.90
25482;DHT22;13395;50.752;4.268;2023-02-28T01:18:51;0.80;99.90
25482;DHT22;13395;50.752;4.268;2023-02-28T01:21:18;0.80;99.90
25482;DHT22;13395;50.752;4.268;2023-02-28T01:23:44;0.70;99.90
25482;DHT22;13395;50.752;4.268;2023-02-28T01:26:14;0.80;99.90
25482;DHT22;13395;50.752;4.268;2023-02-28T01:28:41;0.80;99.90
25482;DHT22;13395;50.752;4.268;2023-02-28T01:31:08;0.80;99.90
25482;DHT22;13395;50.752;4.268;2023-02-28T01:33:34;0.70;99.90
25482;DHT22;13395;50.752;4.268;2023-02-28T01:36:00;0.70;99.90
25482;DHT22;13395;50.752;4.268;2023-02-28T01:38:26;0.70;99.90
25482;DHT22;13395;50.752;4.268;2023-02-28T01:40:52;0.70;99.90
25482;DHT22;13395;50.752;4.268;2023-02-28T01:43:32;0.70;99.90
25482;DHT22;13395;50.752;4.268;2023-02-28T01:46:15;0.60;99.90
25482;DHT22;13395;50.752;4.268;2023-02-28T01:48:47;0.60;99.90
25482;DHT22;13395;50.752;4.268;2023-02-28T01:51:18;0.60;99.90
25482;DHT22;13395;50.752;4.268;2023-02-28T01:53:49;0.60;99.90
25482;DHT22;13395;50.752;4.268;2023-02-28T01:56:20;0.60;99.90
25482;DHT22;13395;50.752;4.268;2023-02-28T01:58:52;0.50;99.90
25482;DHT22;13395;50.752;4.268;2023-02-28T02:01:21;0.60;99.90
25482;DHT22;13395;50.752;4.268;2023-02-28T02:03:56;0.50;99.90
25482;DHT22;13395;50.752;4.268;2023-02-28T02:06:27;0.50;99.90
25482;DHT22;13395;50.752;4.268;2023-02-28T02:08:54;0.50;99.90
25482;DHT22;13395;50.752;4.268;2023-02-28T02:11:22;0.50;99.90
25482;DHT22;13395;50.752;4.268;2023-02-28T02:17:26;0.40;99.90
25482;DHT22;13395;50.752;4.268;2023-02-28T02:28:11;0.30;99.90
25482;DHT22;13395;50.752;4.268;2023-02-28T02:31:05;0.30;99.90
25482;DHT22;13395;50.752;4.268;2023-02-28T02:36:19;0.20;99.90
25482;DHT22;13395;50.752;4.268;2023-02-28T02:38:54;0.20;99.90
25482;DHT22;13395;50.752;4.268;2023-02-28T02:41:29;0.20;99.90
25482;DHT22;13395;50.752;4.268;2023-02-28T02:44:12;0.20;99.90
25482;DHT22;13395;50.752;4.268;2023-02-28T02:46:44;0.20;99.90
25482;DHT22;13395;50.752;4.268;2023-02-28T02:49:14;0.20;99.90
25482;DHT22;13395;50.752;4.268;2023-02-28T02:51:41;0.10;99.90
25482;DHT22;13395;50.752;4.268;2023-02-28T02:54:12;0.10;99.90
25482;DHT22;13395;50.752;4.268;2023-02-28T02:56:43;0.10;99.90
25482;DHT22;13395;50.752;4.268;2023-02-28T02:59:12;0.10;99.90
25482;DHT22;13395;50.752;4.268;2023-02-28T03:01:40;0.10;99.90
25482;DHT22;13395;50.752;4.268;2023-02-28T03:04:10;0.10;99.90
25482;DHT22;13395;50.752;4.268;2023-02-28T03:06:36;0.10;99.90
25482;DHT22;13395;50.752;4.268;2023-02-28T03:09:02;0.10;99.90
25482;DHT22;13395;50.752;4.268;2023-02-28T03:11:30;0.10;99.90
25482;DHT22;13395;50.752;4.268;2023-02-28T03:20:35;0.10;99.90
25482;DHT22;13395;50.752;4.268;2023-02-28T03:23:01;0.10;99.90
25482;DHT22;13395;50.752;4.268;2023-02-28T03:29:23;0.10;99.90
25482;DHT22;13395;50.752;4.268;2023-02-28T03:31:45;0.10;99.90
25482;DHT22;13395;50.752;4.268;2023-02-28T03:34:18;0.10;99.90
25482;DHT22;13395;50.752;4.268;2023-02-28T03:36:49;0.10;99.90
25482;DHT22;13395;50.752;4.268;2023-02-28T03:39:39;0.10;99.90
25482;DHT22;13395;50.752;4.268;2023-02-28T03:42:12;0.10;99.90
25482;DHT22;13395;50.752;4.268;2023-02-28T03:44:43;0.10;99.90
25482;DHT22;13395;50.752;4.268;2023-02-28T03:47:22;0.10;99.90
25482;DHT22;13395;50.752;4.268;2023-02-28T03:49:50;0.10;99.90
25482;DHT22;13395;50.752;4.268;2023-02-28T03:52:21;0.10;99.90
25482;DHT22;13395;50.752;4.268;2023-02-28T03:54:52;0.00;99.90
25482;DHT22;13395;50.752;4.268;2023-02-28T03:57:54;0.10;99.90
25482;DHT22;13395;50.752;4.268;2023-02-28T04:00:29;0.10;99.90
25482;DHT22;13395;50.752;4.268;2023-02-28T04:02:55;0.00;99.90
25482;DHT22;13395;50.752;4.268;2023-02-28T04:05:22;0.00;99.90
25482;DHT22;13395;50.752;4.268;2023-02-28T04:07:48;0.00;99.90
25482;DHT22;13395;50.752;4.268;2023-02-28T04:10:15;0.00;99.90
25482;DHT22;13395;50.752;4.268;2023-02-28T04:12:41;0.00;99.90
25482;DHT22;13395;50.752;4.268;2023-02-28T04:15:07;0.00;99.90
25482;DHT22;13395;50.752;4.268;2023-02-28T04:17:33;-0.10;99.90
25482;DHT22;13395;50.752;4.268;2023-02-28T04:19:58;-0.10;99.90
25482;DHT22;13395;50.752;4.268;2023-02-28T04:22:24;-0.10;99.90
25482;DHT22;13395;50.752;4.268;2023-02-28T04:24:52;0.00;99.90
25482;DHT22;13395;50.752;4.268;2023-02-28T04:27:20;0.00;99.90
25482;DHT22;13395;50.752;4.268;2023-02-28T04:29:46;0.00;99.90
25482;DHT22;13395;50.752;4.268;2023-02-28T04:32:11;0.00;99.90
25482;DHT22;13395;50.752;4.268;2023-02-28T04:34:37;0.00;99.90
25482;DHT22;13395;50.752;4.268;2023-02-28T04:37:03;-0.10;99.90
25482;DHT22;13395;50.752;4.268;2023-02-28T04:39:29;-0.10;99.90
25482;DHT22;13395;50.752;4.268;2023-02-28T04:41:55;-0.20;99.90
25482;DHT22;13395;50.752;4.268;2023-02-28T04:44:21;-0.20;99.90
25482;DHT22;13395;50.752;4.268;2023-02-28T04:46:48;-0.20;99.90
25482;DHT22;13395;50.752;4.268;2023-02-28T04:49:14;-0.20;99.90
25482;DHT22;13395;50.752;4.268;2023-02-28T04:51:41;-0.30;99.90
25482;DHT22;13395;50.752;4.268;2023-02-28T04:54:07;-0.30;99.90
25482;DHT22;13395;50.752;4.268;2023-02-28T04:56:33;-0.30;99.90
25482;DHT22;13395;50.752;4.268;2023-02-28T04:58:59;-0.30;99.90
25482;DHT22;13395;50.752;4.268;2023-02-28T05:01:26;-0.30;99.90
25482;DHT22;13395;50.752;4.268;2023-02-28T05:03:54;-0.30;99.90
25482;DHT22;13395;50.752;4.268;2023-02-28T05:06:24;-0.30;99.90
25482;DHT22;13395;50.752;4.268;2023-02-28T05:08:51;-0.30;99.90
25482;DHT22;13395;50.752;4.268;2023-02-28T05:11:18;-0.30;99.90
25482;DHT22;13395;50.752;4.268;2023-02-28T05:13:44;-0.30;99.90
25482;DHT22;13395;50.752;4.268;2023-02-28T05:16:10;-0.20;99.90
25482;DHT22;13395;50.752;4.268;2023-02-28T05:18:36;-0.20;99.90
25482;DHT22;13395;50.752;4.268;2023-02-28T05:21:02;-0.10;99.90
25482;DHT22;13395;50.752;4.268;2023-02-28T05:23:28;-0.10;99.90
25482;DHT22;13395;50.752;4.268;2023-02-28T05:25:54;-0.10;99.90
25482;DHT22;13395;50.752;4.268;2023-02-28T05:28:20;-0.10;99.90
25482;DHT22;13395;50.752;4.268;2023-02-28T05:30:46;-0.10;99.90
25482;DHT22;13395;50.752;4.268;2023-02-28T05:33:13;-0.10;99.90
25482;DHT22;13395;50.752;4.268;2023-02-28T05:35:42;-0.20;99.90
25482;DHT22;13395;50.752;4.268;2023-02-28T05:38:08;-0.10;99.90
25482;DHT22;13395;50.752;4.268;2023-02-28T05:40:34;-0.10;99.90
25482;DHT22;13395;50.752;4.268;2023-02-28T05:42:59;-0.10;99.90
25482;DHT22;13395;50.752;4.268;2023-02-28T05:45:25;-0.10;99.90
25482;DHT22;13395;50.752;4.268;2023-02-28T05:47:54;0.00;99.90
25482;DHT22;13395;50.752;4.268;2023-02-28T05:50:20;0.00;99.90
25482;DHT22;13395;50.752;4.268;2023-02-28T05:52:52;0.10;99.90
25482;DHT22;13395;50.752;4.268;2023-02-28T05:55:18;0.20;99.90
25482;DHT22;13395;50.752;4.268;2023-02-28T05:57:43;0.30;99.90
25482;DHT22;13395;50.752;4.268;2023-02-28T06:00:10;0.40;99.90
25482;DHT22;13395;50.752;4.268;2023-02-28T06:02:37;0.40;99.90
25482;DHT22;13395;50.752;4.268;2023-02-28T06:05:03;0.40;99.90
25482;DHT22;13395;50.752;4.268;2023-02-28T06:07:29;0.60;99.90
25482;DHT22;13395;50.752;4.268;2023-02-28T06:09:55;0.60;99.90
25482;DHT22;13395;50.752;4.268;2023-02-28T06:12:20;0.60;99.90
25482;DHT22;13395;50.752;4.268;2023-02-28T06:14:46;0.60;99.90
25482;DHT22;13395;50.752;4.268;2023-02-28T06:17:11;0.60;99.90
25482;DHT22;13395;50.752;4.268;2023-02-28T06:19:38;0.60;99.90
25482;DHT22;13395;50.752;4.268;2023-02-28T06:22:06;0.60;99.90
25482;DHT22;13395;50.752;4.268;2023-02-28T06:24:32;0.70;99.90
25482;DHT22;13395;50.752;4.268;2023-02-28T06:26:58;0.80;99.90
25482;DHT22;13395;50.752;4.268;2023-02-28T06:29:31;0.80;99.90
25482;DHT22;13395;50.752;4.268;2023-02-28T06:31:56;0.90;99.90
25482;DHT22;13395;50.752;4.268;2023-02-28T06:34:22;0.90;99.90
25482;DHT22;13395;50.752;4.268;2023-02-28T06:36:50;1.00;99.90
25482;DHT22;13395;50.752;4.268;2023-02-28T06:39:17;1.00;99.90
25482;DHT22;13395;50.752;4.268;2023-02-28T06:41:43;1.10;99.90
25482;DHT22;13395;50.752;4.268;2023-02-28T06:44:16;1.20;99.90
25482;DHT22;13395;50.752;4.268;2023-02-28T06:46:43;1.30;99.90
25482;DHT22;13395;50.752;4.268;2023-02-28T06:49:09;1.40;99.90
25482;DHT22;13395;50.752;4.268;2023-02-28T06:51:37;1.30;99.90
25482;DHT22;13395;50.752;4.268;2023-02-28T06:54:04;1.30;99.90
25482;DHT22;13395;50.752;4.268;2023-02-28T06:56:30;1.50;99.90
25482;DHT22;13395;50.752;4.268;2023-02-28T06:58:56;1.60;99.90
25482;DHT22;13395;50.752;4.268;2023-02-28T07:01:22;1.60;99.90
25482;DHT22;13395;50.752;4.268;2023-02-28T07:03:49;1.70;99.90
25482;DHT22;13395;50.752;4.268;2023-02-28T07:06:18;1.90;99.90
25482;DHT22;13395;50.752;4.268;2023-02-28T07:08:44;1.90;99.90
25482;DHT22;13395;50.752;4.268;2023-02-28T07:11:10;2.00;99.90
25482;DHT22;13395;50.752;4.268;2023-02-28T07:13:35;2.00;99.90
25482;DHT22;13395;50.752;4.268;2023-02-28T07:16:04;2.10;99.90
25482;DHT22;13395;50.752;4.268;2023-02-28T07:18:30;2.30;99.90
25482;DHT22;13395;50.752;4.268;2023-02-28T07:20:56;2.50;99.90
25482;DHT22;13395;50.752;4.268;2023-02-28T07:23:21;2.70;99.90
25482;DHT22;13395;50.752;4.268;2023-02-28T07:25:48;2.90;99.90
25482;DHT22;13395;50.752;4.268;2023-02-28T07:28:14;3.00;99.90
25482;DHT22;13395;50.752;4.268;2023-02-28T07:30:40;3.00;99.90
25482;DHT22;13395;50.752;4.268;2023-02-28T07:33:06;2.90;99.90
25482;DHT22;13395;50.752;4.268;2023-02-28T07:35:32;2.90;99.90
25482;DHT22;13395;50.752;4.268;2023-02-28T07:37:58;3.00;99.90
25482;DHT22;13395;50.752;4.268;2023-02-28T07:40:24;3.00;99.90
25482;DHT22;13395;50.752;4.268;2023-02-28T07:42:50;3.10;99.90
25482;DHT22;13395;50.752;4.268;2023-02-28T07:45:16;3.50;99.90
25482;DHT22;13395;50.752;4.268;2023-02-28T07:47:43;4.40;99.90
25482;DHT22;13395;50.752;4.268;2023-02-28T07:50:11;5.20;99.90
25482;DHT22;13395;50.752;4.268;2023-02-28T07:52:38;5.90;99.90
25482;DHT22;13395;50.752;4.268;2023-02-28T07:55:05;6.90;99.90
25482;DHT22;13395;50.752;4.268;2023-02-28T07:57:31;8.40;99.90
25482;DHT22;13395;50.752;4.268;2023-02-28T07:59:57;9.80;99.90
25482;DHT22;13395;50.752;4.268;2023-02-28T08:02:23;11.20;99.40
25482;DHT22;13395;50.752;4.268;2023-02-28T08:04:48;12.40;96.10
25482;DHT22;13395;50.752;4.268;2023-02-28T08:07:15;12.30;91.90
25482;DHT22;13395;50.752;4.268;2023-02-28T08:09:41;12.30;90.30
25482;DHT22;13395;50.752;4.268;2023-02-28T08:12:08;11.90;88.30
25482;DHT22;13395;50.752;4.268;2023-02-28T08:14:34;11.60;89.80
25482;DHT22;13395;50.752;4.268;2023-02-28T08:17:00;12.40;88.40
25482;DHT22;13395;50.752;4.268;2023-02-28T08:19:26;12.40;85.70
25482;DHT22;13395;50.752;4.268;2023-02-28T08:21:51;12.10;82.90
25482;DHT22;13395;50.752;4.268;2023-02-28T08:24:17;10.90;83.60
25482;DHT22;13395;50.752;4.268;2023-02-28T08:26:43;10.10;84.60
25482;DHT22;13395;50.752;4.268;2023-02-28T08:29:08;10.10;86.20
25482;DHT22;13395;50.752;4.268;2023-02-28T08:31:34;9.90;84.60
25482;DHT22;13395;50.752;4.268;2023-02-28T08:34:08;9.70;85.80
25482;DHT22;13395;50.752;4.268;2023-02-28T08:36:34;10.00;84.90
25482;DHT22;13395;50.752;4.268;2023-02-28T08:38:59;10.80;83.20
25482;DHT22;13395;50.752;4.268;2023-02-28T08:41:25;10.20;82.00
25482;DHT22;13395;50.752;4.268;2023-02-28T08:43:51;10.10;83.40
25482;DHT22;13395;50.752;4.268;2023-02-28T08:46:19;10.00;83.90
25482;DHT22;13395;50.752;4.268;2023-02-28T08:48:45;10.00;83.00
25482;DHT22;13395;50.752;4.268;2023-02-28T08:51:16;9.70;82.70
25482;DHT22;13395;50.752;4.268;2023-02-28T08:53:44;10.00;83.30
25482;DHT22;13395;50.752;4.268;2023-02-28T08:56:13;10.20;82.70
25482;DHT22;13395;50.752;4.268;2023-02-28T08:58:39;11.10;80.80
25482;DHT22;13395;50.752;4.268;2023-02-28T09:01:18;11.60;78.00
25482;DHT22;13395;50.752;4.268;2023-02-28T09:03:44;12.00;76.70
25482;DHT22;13395;50.752;4.268;2023-02-28T09:06:12;11.80;77.00
25482;DHT22;13395;50.752;4.268;2023-02-28T09:08:38;13.00;76.50
25482;DHT22;13395;50.752;4.268;2023-02-28T09:11:04;13.50;73.60
25482;DHT22;13395;50.752;4.268;2023-02-28T09:13:30;13.80;72.40
25482;DHT22;13395;50.752;4.268;2023-02-28T09:15:58;14.70;70.60
25482;DHT22;13395;50.752;4.268;2023-02-28T09:18:25;15.00;67.90
25482;DHT22;13395;50.752;4.268;2023-02-28T09:20:51;15.20;67.20
25482;DHT22;13395;50.752;4.268;2023-02-28T09:23:17;15.40;65.10
25482;DHT22;13395;50.752;4.268;2023-02-28T09:25:54;15.00;63.70
25482;DHT22;13395;50.752;4.268;2023-02-28T09:28:20;14.90;61.60
25482;DHT22;13395;50.752;4.268;2023-02-28T09:30:50;14.70;61.40
25482;DHT22;13395;50.752;4.268;2023-02-28T09:33:17;14.70;61.20
25482;DHT22;13395;50.752;4.268;2023-02-28T09:35:44;15.40;60.00
25482;DHT22;13395;50.752;4.268;2023-02-28T09:38:10;15.60;59.10
25482;DHT22;13395;50.752;4.268;2023-02-28T09:41:00;15.50;57.10
25482;DHT22;13395;50.752;4.268;2023-02-28T09:43:33;15.70;57.60
25482;DHT22;13395;50.752;4.268;2023-02-28T09:46:16;15.80;56.50
25482;DHT22;13395;50.752;4.268;2023-02-28T09:48:45;14.30;57.40
25482;DHT22;13395;50.752;4.268;2023-02-28T09:51:36;14.00;58.60
25482;DHT22;13395;50.752;4.268;2023-02-28T09:54:03;13.90;58.40
25482;DHT22;13395;50.752;4.268;2023-02-28T09:56:35;15.60;57.70
25482;DHT22;13395;50.752;4.268;2023-02-28T10:02:09;16.80;54.30
25482;DHT22;13395;50.752;4.268;2023-02-28T10:04:52;17.10;51.40
25482;DHT22;13395;50.752;4.268;2023-02-28T10:07:43;17.40;52.70
25482;DHT22;13395;50.752;4.268;2023-02-28T10:10:33;17.60;51.60
25482;DHT22;13395;50.752;4.268;2023-02-28T10:13:03;16.10;51.60
25482;DHT22;13395;50.752;4.268;2023-02-28T10:15:31;15.50;52.20
25482;DHT22;13395;50.752;4.268;2023-02-28T10:18:05;15.80;53.00
25482;DHT22;13395;50.752;4.268;2023-02-28T10:20:38;16.10;52.40
25482;DHT22;13395;50.752;4.268;2023-02-28T10:23:18;15.70;51.40
25482;DHT22;13395;50.752;4.268;2023-02-28T10:28:33;13.30;55.40
25482;DHT22;13395;50.752;4.268;2023-02-28T10:30:59;13.40;55.40
25482;DHT22;13395;50.752;4.268;2023-02-28T10:33:29;14.50;54.90
25482;DHT22;13395;50.752;4.268;2023-02-28T10:35:56;15.00;52.90
25482;DHT22;13395;50.752;4.268;2023-02-28T10:38:23;14.70;53.40
25482;DHT22;13395;50.752;4.268;2023-02-28T10:40:50;15.10;53.20
25482;DHT22;13395;50.752;4.268;2023-02-28T10:48:40;13.50;54.00
25482;DHT22;13395;50.752;4.268;2023-02-28T10:51:11;13.10;55.70
25482;DHT22;13395;50.752;4.268;2023-02-28T10:58:57;15.70;53.20
25482;DHT22;13395;50.752;4.268;2023-02-28T11:01:42;16.20;49.90
25482;DHT22;13395;50.752;4.268;2023-02-28T11:07:03;16.40;49.30
25482;DHT22;13395;50.752;4.268;2023-02-28T11:09:34;16.30;49.70
25482;DHT22;13395;50.752;4.268;2023-02-28T11:12:01;15.90;49.20
25482;DHT22;13395;50.752;4.268;2023-02-28T11:14:30;16.30;48.60
25482;DHT22;13395;50.752;4.268;2023-02-28T11:17:00;16.40;48.00
25482;DHT22;13395;50.752;4.268;2023-02-28T11:19:33;16.50;47.70
25482;DHT22;13395;50.752;4.268;2023-02-28T11:22:02;17.00;46.80
25482;DHT22;13395;50.752;4.268;2023-02-28T11:26:57;17.10;47.00
25482;DHT22;13395;50.752;4.268;2023-02-28T11:29:27;16.70;46.70
25482;DHT22;13395;50.752;4.268;2023-02-28T11:32:23;16.20;46.00
25482;DHT22;13395;50.752;4.268;2023-02-28T11:37:35;15.70;48.40
25482;DHT22;13395;50.752;4.268;2023-02-28T11:40:02;15.70;47.60
25482;DHT22;13395;50.752;4.268;2023-02-28T11:45:50;15.00;48.10
25482;DHT22;13395;50.752;4.268;2023-02-28T11:48:25;15.30;48.20
25482;DHT22;13395;50.752;4.268;2023-02-28T11:56:41;13.20;50.40
25482;DHT22;13395;50.752;4.268;2023-02-28T12:07:19;10.60;56.00
25482;DHT22;13395;50.752;4.268;2023-02-28T12:10:17;11.30;55.60
25482;DHT22;13395;50.752;4.268;2023-02-28T12:26:51;11.00;56.20
25482;DHT22;13395;50.752;4.268;2023-02-28T12:29:31;10.70;55.90
25482;DHT22;13395;50.752;4.268;2023-02-28T12:32:05;10.60;56.10
25482;DHT22;13395;50.752;4.268;2023-02-28T12:34:35;11.10;56.00
25482;DHT22;13395;50.752;4.268;2023-02-28T12:37:05;11.50;55.10
25482;DHT22;13395;50.752;4.268;2023-02-28T12:39:38;12.20;52.90
25482;DHT22;13395;50.752;4.268;2023-02-28T12:42:11;12.30;52.40
25482;DHT22;13395;50.752;4.268;2023-02-28T12:44:53;13.20;51.60
25482;DHT22;13395;50.752;4.268;2023-02-28T12:47:21;13.70;50.30
25482;DHT22;13395;50.752;4.268;2023-02-28T12:49:51;14.20;49.60
25482;DHT22;13395;50.752;4.268;2023-02-28T12:52:27;14.00;50.00
25482;DHT22;13395;50.752;4.268;2023-02-28T12:55:03;15.00;49.00
25482;DHT22;13395;50.752;4.268;2023-02-28T12:57:42;15.00;48.10
25482;DHT22;13395;50.752;4.268;2023-02-28T13:00:17;15.70;48.20
25482;DHT22;13395;50.752;4.268;2023-02-28T13:03:18;15.30;47.30
25482;DHT22;13395;50.752;4.268;2023-02-28T13:06:10;15.50;48.50
25482;DHT22;13395;50.752;4.268;2023-02-28T13:11:39;15.10;46.50
25482;DHT22;13395;50.752;4.268;2023-02-28T13:16:57;15.00;47.40
25482;DHT22;13395;50.752;4.268;2023-02-28T13:19:34;14.70;48.60
25482;DHT22;13395;50.752;4.268;2023-02-28T13:22:01;14.40;47.90
25482;DHT22;13395;50.752;4.268;2023-02-28T13:29:41;13.70;49.80
25482;DHT22;13395;50.752;4.268;2023-02-28T13:34:38;13.20;50.40
25482;DHT22;13395;50.752;4.268;2023-02-28T13:39:49;13.60;49.60
25482;DHT22;13395;50.752;4.268;2023-02-28T13:47:45;13.50;51.10
25482;DHT22;13395;50.752;4.268;2023-02-28T13:50:36;13.80;49.70
25482;DHT22;13395;50.752;4.268;2023-02-28T13:58:54;13.80;49.40
25482;DHT22;13395;50.752;4.268;2023-02-28T14:04:14;13.60;49.60
25482;DHT22;13395;50.752;4.268;2023-02-28T14:06:53;14.10;50.00
25482;DHT22;13395;50.752;4.268;2023-02-28T14:09:38;13.60;49.30
25482;DHT22;13395;50.752;4.268;2023-02-28T14:18:05;12.60;50.00
25482;DHT22;13395;50.752;4.268;2023-02-28T14:20:36;12.70;49.90
25482;DHT22;13395;50.752;4.268;2023-02-28T14:36:06;8.70;57.20
25482;DHT22;13395;50.752;4.268;2023-02-28T14:38:39;8.60;57.40
25482;DHT22;13395;50.752;4.268;2023-02-28T14:41:14;8.50;58.40
25482;DHT22;13395;50.752;4.268;2023-02-28T14:43:49;8.50;58.80
25482;DHT22;13395;50.752;4.268;2023-02-28T14:46:17;8.40;57.80
25482;DHT22;13395;50.752;4.268;2023-02-28T14:48:48;8.30;58.90
25482;DHT22;13395;50.752;4.268;2023-02-28T14:51:19;8.30;60.00
25482;DHT22;13395;50.752;4.268;2023-02-28T14:53:50;8.30;58.90
25482;DHT22;13395;50.752;4.268;2023-02-28T14:56:23;8.10;59.00
25482;DHT22;13395;50.752;4.268;2023-02-28T14:58:54;7.80;59.90
25482;DHT22;13395;50.752;4.268;2023-02-28T15:01:22;7.60;61.00
25482;DHT22;13395;50.752;4.268;2023-02-28T15:03:48;7.70;61.30
25482;DHT22;13395;50.752;4.268;2023-02-28T15:06:21;7.60;61.10
25482;DHT22;13395;50.752;4.268;2023-02-28T15:08:48;7.80;60.80
25482;DHT22;13395;50.752;4.268;2023-02-28T15:11:32;7.70;60.90
25482;DHT22;13395;50.752;4.268;2023-02-28T15:13:57;7.50;60.20
25482;DHT22;13395;50.752;4.268;2023-02-28T15:16:36;7.50;61.10
25482;DHT22;13395;50.752;4.268;2023-02-28T15:19:31;7.50;60.70
25482;DHT22;13395;50.752;4.268;2023-02-28T15:27:04;7.40;61.40
25482;DHT22;13395;50.752;4.268;2023-02-28T15:29:34;7.30;61.10
25482;DHT22;13395;50.752;4.268;2023-02-28T15:32:05;7.30;61.90
25482;DHT22;13395;50.752;4.268;2023-02-28T15:34:37;7.40;62.30
25482;DHT22;13395;50.752;4.268;2023-02-28T15:37:25;7.50;62.70
25482;DHT22;13395;50.752;4.268;2023-02-28T15:39:52;7.60;62.50
25482;DHT22;13395;50.752;4.268;2023-02-28T15:42:19;7.70;61.90
25482;DHT22;13395;50.752;4.268;2023-02-28T15:44:45;7.50;61.10
25482;DHT22;13395;50.752;4.268;2023-02-28T15:47:21;7.50;62.30
25482;DHT22;13395;50.752;4.268;2023-02-28T15:49:56;7.50;62.30
25482;DHT22;13395;50.752;4.268;2023-02-28T15:52:38;7.40;61.50
25482;DHT22;13395;50.752;4.268;2023-02-28T15:57:45;7.20;62.80
25482;DHT22;13395;50.752;4.268;2023-02-28T16:00:19;7.20;63.50
25482;DHT22;13395;50.752;4.268;2023-02-28T16:02:45;6.90;63.40
25482;DHT22;13395;50.752;4.268;2023-02-28T16:07:38;6.80;63.70
25482;DHT22;13395;50.752;4.268;2023-02-28T16:10:06;6.90;64.20
25482;DHT22;13395;50.752;4.268;2023-02-28T16:12:35;6.90;64.40
25482;DHT22;13395;50.752;4.268;2023-02-28T16:15:07;6.80;64.70
25482;DHT22;13395;50.752;4.268;2023-02-28T16:17:35;6.90;65.80
25482;DHT22;13395;50.752;4.268;2023-02-28T16:23:01;6.90;64.30
25482;DHT22;13395;50.752;4.268;2023-02-28T16:28:01;6.60;65.70
25482;DHT22;13395;50.752;4.268;2023-02-28T16:30:28;6.60;66.00
25482;DHT22;13395;50.752;4.268;2023-02-28T16:32:57;6.50;66.40
25482;DHT22;13395;50.752;4.268;2023-02-28T16:35:22;6.50;66.90
25482;DHT22;13395;50.752;4.268;2023-02-28T16:37:50;6.40;67.10
25482;DHT22;13395;50.752;4.268;2023-02-28T16:40:18;6.50;66.70
25482;DHT22;13395;50.752;4.268;2023-02-28T16:42:47;6.50;66.70
25482;DHT22;13395;50.752;4.268;2023-02-28T16:45:26;6.30;66.60
25482;DHT22;13395;50.752;4.268;2023-02-28T16:47:52;6.20;67.60
25482;DHT22;13395;50.752;4.268;2023-02-28T16:50:21;6.30;67.90
25482;DHT22;13395;50.752;4.268;2023-02-28T16:52:47;6.20;68.10
25482;DHT22;13395;50.752;4.268;2023-02-28T16:55:15;6.10;68.30
25482;DHT22;13395;50.752;4.268;2023-02-28T16:57:41;6.10;69.30
25482;DHT22;13395;50.752;4.268;2023-02-28T17:00:08;6.10;69.30
25482;DHT22;13395;50.752;4.268;2023-02-28T17:02:36;6.00;69.50
25482;DHT22;13395;50.752;4.268;2023-02-28T17:05:02;6.10;71.40
25482;DHT22;13395;50.752;4.268;2023-02-28T17:07:27;6.10;70.70
25482;DHT22;13395;50.752;4.268;2023-02-28T17:09:53;6.10;71.40
25482;DHT22;13395;50.752;4.268;2023-02-28T17:12:19;6.10;71.90
25482;DHT22;13395;50.752;4.268;2023-02-28T17:14:44;6.10;72.00
25482;DHT22;13395;50.752;4.268;2023-02-28T17:17:18;6.00;71.80
25482;DHT22;13395;50.752;4.268;2023-02-28T17:19:45;5.90;71.90
25482;DHT22;13395;50.752;4.268;2023-02-28T17:22:10;5.90;72.00
25482;DHT22;13395;50.752;4.268;2023-02-28T17:24:36;5.80;71.90
25482;DHT22;13395;50.752;4.268;2023-02-28T17:27:03;5.80;71.20
25482;DHT22;13395;50.752;4.268;2023-02-28T17:29:32;5.70;73.00
25482;DHT22;13395;50.752;4.268;2023-02-28T17:31:58;5.80;73.30
25482;DHT22;13395;50.752;4.268;2023-02-28T17:34:24;5.60;71.70
25482;DHT22;13395;50.752;4.268;2023-02-28T17:36:51;5.50;71.80
25482;DHT22;13395;50.752;4.268;2023-02-28T17:39:18;5.40;73.30
25482;DHT22;13395;50.752;4.268;2023-02-28T17:41:53;5.40;73.20
25482;DHT22;13395;50.752;4.268;2023-02-28T17:44:19;5.40;74.90
25482;DHT22;13395;50.752;4.268;2023-02-28T17:46:45;5.40;74.20
25482;DHT22;13395;50.752;4.268;2023-02-28T17:49:11;5.30;74.30
25482;DHT22;13395;50.752;4.268;2023-02-28T17:51:37;5.30;74.60
25482;DHT22;13395;50.752;4.268;2023-02-28T17:54:03;5.20;74.10
25482;DHT22;13395;50.752;4.268;2023-02-28T17:56:28;5.10;75.10
25482;DHT22;13395;50.752;4.268;2023-02-28T17:58:55;5.10;74.70
25482;DHT22;13395;50.752;4.268;2023-02-28T18:01:22;5.00;75.90
25482;DHT22;13395;50.752;4.268;2023-02-28T18:03:48;5.00;77.40
25482;DHT22;13395;50.752;4.268;2023-02-28T18:06:28;4.90;77.00
25482;DHT22;13395;50.752;4.268;2023-02-28T18:08:55;5.00;77.70
25482;DHT22;13395;50.752;4.268;2023-02-28T18:11:22;5.00;77.90
25482;DHT22;13395;50.752;4.268;2023-02-28T18:13:51;4.90;78.30
25482;DHT22;13395;50.752;4.268;2023-02-28T18:16:18;4.90;78.20
25482;DHT22;13395;50.752;4.268;2023-02-28T18:18:44;4.80;78.50